Terminal Aerodrome Forecast
Issued by NWS Twin Cities, MN

Home | Current Version | Previous Version | Text Only | Print | Product List | Glossary Off
Versions: 1 2 3 4 5 6 7 8 9 10 11 12 13 14 15 16 17 18 19 20 21 22

000
FTUS43 KMPX 241400 AAA
TAFMSP
TAF AMD
KMSP 241457Z 2415/2518 34009KT P6SM OVC012
     FM242000 31008KT P6SM OVC018
     FM250300 25005KT P6SM BKN025 OVC080
     FM250900 19006KT P6SM SCT020 OVC040=

USA.gov is the U.S. government's official web portal to all federal, state and local government web resources and services.